sensor_id;sensor_type;location;lat;lon;timestamp;P1;durP1;ratioP1;P2;durP2;ratioP2
53879;SDS011;39791;53.184;5.486;2023-12-28T00:02:04;64.78;;;39.53;;
53879;SDS011;39791;53.184;5.486;2023-12-28T00:04:30;56.22;;;39.00;;
53879;SDS011;39791;53.184;5.486;2023-12-28T00:06:55;65.07;;;38.00;;
53879;SDS011;39791;53.184;5.486;2023-12-28T00:09:21;63.30;;;39.08;;
53879;SDS011;39791;53.184;5.486;2023-12-28T00:11:47;53.40;;;36.30;;
53879;SDS011;39791;53.184;5.486;2023-12-28T00:14:12;57.35;;;37.15;;
53879;SDS011;39791;53.184;5.486;2023-12-28T00:16:38;58.88;;;36.75;;
53879;SDS011;39791;53.184;5.486;2023-12-28T00:19:04;62.67;;;38.28;;
53879;SDS011;39791;53.184;5.486;2023-12-28T00:21:30;58.40;;;37.45;;
53879;SDS011;39791;53.184;5.486;2023-12-28T00:23:55;61.85;;;40.83;;
53879;SDS011;39791;53.184;5.486;2023-12-28T00:26:21;64.40;;;39.17;;
53879;SDS011;39791;53.184;5.486;2023-12-28T00:28:47;64.32;;;40.17;;
53879;SDS011;39791;53.184;5.486;2023-12-28T00:31:13;60.10;;;37.67;;
53879;SDS011;39791;53.184;5.486;2023-12-28T00:33:38;64.30;;;40.10;;
53879;SDS011;39791;53.184;5.486;2023-12-28T00:36:04;59.03;;;38.08;;
53879;SDS011;39791;53.184;5.486;2023-12-28T00:38:30;63.50;;;39.33;;
53879;SDS011;39791;53.184;5.486;2023-12-28T00:40:55;55.53;;;37.35;;
53879;SDS011;39791;53.184;5.486;2023-12-28T00:43:22;62.08;;;36.90;;
53879;SDS011;39791;53.184;5.486;2023-12-28T00:45:47;59.17;;;36.95;;
53879;SDS011;39791;53.184;5.486;2023-12-28T00:48:13;55.20;;;37.55;;
53879;SDS011;39791;53.184;5.486;2023-12-28T00:50:39;63.03;;;40.00;;
53879;SDS011;39791;53.184;5.486;2023-12-28T00:53:04;61.97;;;41.08;;
53879;SDS011;39791;53.184;5.486;2023-12-28T00:55:30;69.45;;;39.78;;
53879;SDS011;39791;53.184;5.486;2023-12-28T00:57:56;53.33;;;37.08;;
53879;SDS011;39791;53.184;5.486;2023-12-28T01:00:21;55.45;;;35.15;;
53879;SDS011;39791;53.184;5.486;2023-12-28T01:02:47;69.57;;;37.65;;
53879;SDS011;39791;53.184;5.486;2023-12-28T01:05:13;50.97;;;36.17;;
53879;SDS011;39791;53.184;5.486;2023-12-28T01:07:39;58.85;;;36.92;;
53879;SDS011;39791;53.184;5.486;2023-12-28T01:10:05;60.33;;;36.40;;
53879;SDS011;39791;53.184;5.486;2023-12-28T01:12:31;61.42;;;35.72;;
53879;SDS011;39791;53.184;5.486;2023-12-28T01:14:56;53.88;;;34.30;;
53879;SDS011;39791;53.184;5.486;2023-12-28T01:17:22;55.08;;;33.55;;
53879;SDS011;39791;53.184;5.486;2023-12-28T01:19:47;61.38;;;34.70;;
53879;SDS011;39791;53.184;5.486;2023-12-28T01:22:13;54.95;;;32.03;;
53879;SDS011;39791;53.184;5.486;2023-12-28T01:24:39;56.47;;;35.22;;
53879;SDS011;39791;53.184;5.486;2023-12-28T01:27:04;55.70;;;36.75;;
53879;SDS011;39791;53.184;5.486;2023-12-28T01:29:30;57.33;;;36.42;;
53879;SDS011;39791;53.184;5.486;2023-12-28T01:31:55;55.80;;;34.72;;
53879;SDS011;39791;53.184;5.486;2023-12-28T01:34:21;61.53;;;36.50;;
53879;SDS011;39791;53.184;5.486;2023-12-28T01:36:47;54.88;;;32.95;;
53879;SDS011;39791;53.184;5.486;2023-12-28T01:39:12;65.32;;;35.80;;
53879;SDS011;39791;53.184;5.486;2023-12-28T01:41:40;65.55;;;36.08;;
53879;SDS011;39791;53.184;5.486;2023-12-28T01:44:06;61.30;;;34.10;;
53879;SDS011;39791;53.184;5.486;2023-12-28T01:46:31;65.80;;;35.47;;
53879;SDS011;39791;53.184;5.486;2023-12-28T01:48:58;56.08;;;33.40;;
53879;SDS011;39791;53.184;5.486;2023-12-28T01:51:24;61.35;;;35.15;;
53879;SDS011;39791;53.184;5.486;2023-12-28T01:53:50;65.00;;;34.78;;
53879;SDS011;39791;53.184;5.486;2023-12-28T01:56:17;63.00;;;36.70;;
53879;SDS011;39791;53.184;5.486;2023-12-28T01:58:43;57.35;;;34.95;;
53879;SDS011;39791;53.184;5.486;2023-12-28T02:01:11;64.80;;;36.17;;
53879;SDS011;39791;53.184;5.486;2023-12-28T02:03:37;65.53;;;36.08;;
53879;SDS011;39791;53.184;5.486;2023-12-28T02:06:03;50.67;;;34.08;;
53879;SDS011;39791;53.184;5.486;2023-12-28T02:08:31;52.47;;;35.03;;
53879;SDS011;39791;53.184;5.486;2023-12-28T02:10:56;61.55;;;37.25;;
53879;SDS011;39791;53.184;5.486;2023-12-28T02:13:23;53.15;;;33.10;;
53879;SDS011;39791;53.184;5.486;2023-12-28T02:15:51;51.65;;;33.42;;
53879;SDS011;39791;53.184;5.486;2023-12-28T02:18:30;68.53;;;37.70;;
53879;SDS011;39791;53.184;5.486;2023-12-28T02:21:03;55.35;;;37.80;;
53879;SDS011;39791;53.184;5.486;2023-12-28T02:23:32;49.17;;;34.85;;
53879;SDS011;39791;53.184;5.486;2023-12-28T02:25:58;52.45;;;36.30;;
53879;SDS011;39791;53.184;5.486;2023-12-28T02:28:24;48.05;;;33.92;;
53879;SDS011;39791;53.184;5.486;2023-12-28T02:30:49;55.03;;;36.42;;
53879;SDS011;39791;53.184;5.486;2023-12-28T02:33:18;52.65;;;36.78;;
53879;SDS011;39791;53.184;5.486;2023-12-28T02:35:49;50.40;;;35.00;;
53879;SDS011;39791;53.184;5.486;2023-12-28T02:38:20;52.97;;;36.92;;
53879;SDS011;39791;53.184;5.486;2023-12-28T02:40:47;55.78;;;36.67;;
53879;SDS011;39791;53.184;5.486;2023-12-28T02:43:13;44.30;;;33.20;;
53879;SDS011;39791;53.184;5.486;2023-12-28T02:45:39;47.67;;;34.63;;
53879;SDS011;39791;53.184;5.486;2023-12-28T02:48:05;46.83;;;34.33;;
53879;SDS011;39791;53.184;5.486;2023-12-28T02:50:32;53.17;;;34.10;;
53879;SDS011;39791;53.184;5.486;2023-12-28T02:52:58;44.00;;;33.40;;
53879;SDS011;39791;53.184;5.486;2023-12-28T02:55:24;59.35;;;36.08;;
53879;SDS011;39791;53.184;5.486;2023-12-28T02:57:50;59.35;;;36.05;;
53879;SDS011;39791;53.184;5.486;2023-12-28T03:00:17;45.78;;;35.28;;
53879;SDS011;39791;53.184;5.486;2023-12-28T03:02:42;56.53;;;34.00;;
53879;SDS011;39791;53.184;5.486;2023-12-28T03:05:08;50.35;;;34.20;;
53879;SDS011;39791;53.184;5.486;2023-12-28T03:07:34;50.15;;;33.33;;
53879;SDS011;39791;53.184;5.486;2023-12-28T03:10:00;43.92;;;32.17;;
53879;SDS011;39791;53.184;5.486;2023-12-28T03:12:28;49.80;;;36.63;;
53879;SDS011;39791;53.184;5.486;2023-12-28T03:14:54;46.05;;;32.50;;
53879;SDS011;39791;53.184;5.486;2023-12-28T03:17:20;45.88;;;32.47;;
53879;SDS011;39791;53.184;5.486;2023-12-28T03:19:45;43.72;;;33.65;;
53879;SDS011;39791;53.184;5.486;2023-12-28T03:22:11;56.25;;;33.67;;
53879;SDS011;39791;53.184;5.486;2023-12-28T03:24:37;49.22;;;32.83;;
53879;SDS011;39791;53.184;5.486;2023-12-28T03:27:03;49.78;;;36.58;;
53879;SDS011;39791;53.184;5.486;2023-12-28T03:29:29;55.28;;;35.30;;
53879;SDS011;39791;53.184;5.486;2023-12-28T03:31:55;50.47;;;31.33;;
53879;SDS011;39791;53.184;5.486;2023-12-28T03:34:21;51.30;;;35.20;;
53879;SDS011;39791;53.184;5.486;2023-12-28T03:36:47;42.70;;;30.98;;
53879;SDS011;39791;53.184;5.486;2023-12-28T03:39:13;51.85;;;32.33;;
53879;SDS011;39791;53.184;5.486;2023-12-28T03:41:39;49.03;;;31.40;;
53879;SDS011;39791;53.184;5.486;2023-12-28T03:44:05;54.58;;;36.75;;
53879;SDS011;39791;53.184;5.486;2023-12-28T03:46:30;54.55;;;33.05;;
53879;SDS011;39791;53.184;5.486;2023-12-28T03:48:56;48.05;;;35.50;;
53879;SDS011;39791;53.184;5.486;2023-12-28T03:51:22;46.38;;;31.42;;
53879;SDS011;39791;53.184;5.486;2023-12-28T03:53:47;43.60;;;31.13;;
53879;SDS011;39791;53.184;5.486;2023-12-28T03:56:23;51.95;;;30.58;;
53879;SDS011;39791;53.184;5.486;2023-12-28T03:58:52;47.30;;;31.67;;
53879;SDS011;39791;53.184;5.486;2023-12-28T04:01:20;49.40;;;35.63;;
53879;SDS011;39791;53.184;5.486;2023-12-28T04:03:47;56.80;;;36.53;;
53879;SDS011;39791;53.184;5.486;2023-12-28T04:06:13;52.63;;;31.23;;
53879;SDS011;39791;53.184;5.486;2023-12-28T04:08:40;54.85;;;33.72;;
53879;SDS011;39791;53.184;5.486;2023-12-28T04:11:09;53.33;;;30.85;;
53879;SDS011;39791;53.184;5.486;2023-12-28T04:13:35;49.58;;;33.30;;
53879;SDS011;39791;53.184;5.486;2023-12-28T04:16:01;48.83;;;32.65;;
53879;SDS011;39791;53.184;5.486;2023-12-28T04:18:28;55.53;;;33.00;;
53879;SDS011;39791;53.184;5.486;2023-12-28T04:20:53;47.17;;;31.77;;
53879;SDS011;39791;53.184;5.486;2023-12-28T04:23:19;51.03;;;35.28;;
53879;SDS011;39791;53.184;5.486;2023-12-28T04:25:45;52.28;;;33.67;;
53879;SDS011;39791;53.184;5.486;2023-12-28T04:28:10;52.83;;;31.55;;
53879;SDS011;39791;53.184;5.486;2023-12-28T04:30:36;47.67;;;31.70;;
53879;SDS011;39791;53.184;5.486;2023-12-28T04:33:01;53.75;;;30.75;;
53879;SDS011;39791;53.184;5.486;2023-12-28T04:35:27;50.40;;;31.13;;
53879;SDS011;39791;53.184;5.486;2023-12-28T04:37:53;46.00;;;31.65;;
53879;SDS011;39791;53.184;5.486;2023-12-28T04:40:19;44.47;;;32.25;;
53879;SDS011;39791;53.184;5.486;2023-12-28T04:42:45;59.13;;;33.03;;
53879;SDS011;39791;53.184;5.486;2023-12-28T04:45:11;61.70;;;38.38;;
53879;SDS011;39791;53.184;5.486;2023-12-28T04:47:37;57.38;;;38.22;;
53879;SDS011;39791;53.184;5.486;2023-12-28T04:50:03;55.28;;;33.25;;
53879;SDS011;39791;53.184;5.486;2023-12-28T04:52:29;55.60;;;33.33;;
53879;SDS011;39791;53.184;5.486;2023-12-28T04:54:55;50.55;;;33.97;;
53879;SDS011;39791;53.184;5.486;2023-12-28T04:57:21;52.67;;;37.65;;
53879;SDS011;39791;53.184;5.486;2023-12-28T04:59:49;62.08;;;34.42;;
53879;SDS011;39791;53.184;5.486;2023-12-28T05:02:15;54.47;;;33.92;;
53879;SDS011;39791;53.184;5.486;2023-12-28T05:04:41;53.90;;;32.83;;
53879;SDS011;39791;53.184;5.486;2023-12-28T05:07:06;54.90;;;33.80;;
53879;SDS011;39791;53.184;5.486;2023-12-28T05:09:32;60.60;;;37.85;;
53879;SDS011;39791;53.184;5.486;2023-12-28T05:11:57;72.22;;;41.35;;
53879;SDS011;39791;53.184;5.486;2023-12-28T05:14:23;65.85;;;38.78;;
53879;SDS011;39791;53.184;5.486;2023-12-28T05:16:49;63.85;;;38.60;;
53879;SDS011;39791;53.184;5.486;2023-12-28T05:19:14;59.38;;;36.72;;
53879;SDS011;39791;53.184;5.486;2023-12-28T05:21:40;61.08;;;38.60;;
53879;SDS011;39791;53.184;5.486;2023-12-28T05:24:05;60.25;;;32.83;;
53879;SDS011;39791;53.184;5.486;2023-12-28T05:26:31;57.67;;;37.58;;
53879;SDS011;39791;53.184;5.486;2023-12-28T05:28:57;68.65;;;38.55;;
53879;SDS011;39791;53.184;5.486;2023-12-28T05:31:23;64.60;;;36.22;;
53879;SDS011;39791;53.184;5.486;2023-12-28T05:33:48;65.20;;;34.47;;
53879;SDS011;39791;53.184;5.486;2023-12-28T05:36:14;58.72;;;36.33;;
53879;SDS011;39791;53.184;5.486;2023-12-28T05:38:40;55.08;;;36.00;;
53879;SDS011;39791;53.184;5.486;2023-12-28T05:41:05;51.10;;;32.85;;
53879;SDS011;39791;53.184;5.486;2023-12-28T05:43:31;68.95;;;33.45;;
53879;SDS011;39791;53.184;5.486;2023-12-28T05:45:56;58.05;;;35.05;;
53879;SDS011;39791;53.184;5.486;2023-12-28T05:48:22;56.22;;;33.33;;
53879;SDS011;39791;53.184;5.486;2023-12-28T05:50:48;57.70;;;37.50;;
53879;SDS011;39791;53.184;5.486;2023-12-28T05:53:14;58.17;;;34.92;;
53879;SDS011;39791;53.184;5.486;2023-12-28T05:55:43;62.90;;;37.38;;
53879;SDS011;39791;53.184;5.486;2023-12-28T05:58:09;56.13;;;33.75;;
53879;SDS011;39791;53.184;5.486;2023-12-28T06:00:35;58.42;;;36.40;;
53879;SDS011;39791;53.184;5.486;2023-12-28T06:03:07;57.35;;;38.88;;
53879;SDS011;39791;53.184;5.486;2023-12-28T06:05:33;63.80;;;35.70;;
53879;SDS011;39791;53.184;5.486;2023-12-28T06:07:59;64.68;;;38.88;;
53879;SDS011;39791;53.184;5.486;2023-12-28T06:10:24;69.78;;;42.28;;
53879;SDS011;39791;53.184;5.486;2023-12-28T06:12:50;69.18;;;46.40;;
53879;SDS011;39791;53.184;5.486;2023-12-28T06:15:16;74.10;;;46.72;;
53879;SDS011;39791;53.184;5.486;2023-12-28T06:17:41;74.05;;;38.88;;
53879;SDS011;39791;53.184;5.486;2023-12-28T06:20:07;69.20;;;35.05;;
53879;SDS011;39791;53.184;5.486;2023-12-28T06:22:36;57.13;;;34.78;;
53879;SDS011;39791;53.184;5.486;2023-12-28T06:25:02;61.58;;;36.20;;
53879;SDS011;39791;53.184;5.486;2023-12-28T06:27:28;70.95;;;36.15;;
53879;SDS011;39791;53.184;5.486;2023-12-28T06:29:54;57.13;;;33.75;;
53879;SDS011;39791;53.184;5.486;2023-12-28T06:32:19;65.07;;;36.80;;
53879;SDS011;39791;53.184;5.486;2023-12-28T06:34:45;66.43;;;38.38;;
53879;SDS011;39791;53.184;5.486;2023-12-28T06:37:11;60.88;;;36.05;;
53879;SDS011;39791;53.184;5.486;2023-12-28T06:39:37;57.63;;;38.72;;
53879;SDS011;39791;53.184;5.486;2023-12-28T06:42:03;58.25;;;34.80;;
53879;SDS011;39791;53.184;5.486;2023-12-28T06:44:29;75.13;;;38.30;;
53879;SDS011;39791;53.184;5.486;2023-12-28T06:46:54;71.63;;;35.17;;
53879;SDS011;39791;53.184;5.486;2023-12-28T06:49:20;59.33;;;34.55;;
53879;SDS011;39791;53.184;5.486;2023-12-28T06:51:46;69.15;;;43.05;;
53879;SDS011;39791;53.184;5.486;2023-12-28T06:54:11;60.10;;;35.05;;
53879;SDS011;39791;53.184;5.486;2023-12-28T06:56:38;68.25;;;37.63;;
53879;SDS011;39791;53.184;5.486;2023-12-28T06:59:03;57.42;;;34.80;;
53879;SDS011;39791;53.184;5.486;2023-12-28T07:01:35;63.63;;;35.20;;
53879;SDS011;39791;53.184;5.486;2023-12-28T07:04:01;77.97;;;41.17;;
53879;SDS011;39791;53.184;5.486;2023-12-28T07:06:27;68.07;;;38.78;;
53879;SDS011;39791;53.184;5.486;2023-12-28T07:08:52;74.47;;;37.65;;
53879;SDS011;39791;53.184;5.486;2023-12-28T07:11:18;74.78;;;37.67;;
53879;SDS011;39791;53.184;5.486;2023-12-28T07:13:43;70.70;;;37.97;;
53879;SDS011;39791;53.184;5.486;2023-12-28T07:16:09;79.18;;;36.92;;
53879;SDS011;39791;53.184;5.486;2023-12-28T07:18:34;80.30;;;41.03;;
53879;SDS011;39791;53.184;5.486;2023-12-28T07:21:00;69.28;;;37.65;;
53879;SDS011;39791;53.184;5.486;2023-12-28T07:23:26;75.07;;;39.65;;
53879;SDS011;39791;53.184;5.486;2023-12-28T07:25:52;77.88;;;42.85;;
53879;SDS011;39791;53.184;5.486;2023-12-28T07:28:18;82.55;;;40.88;;
53879;SDS011;39791;53.184;5.486;2023-12-28T07:30:43;86.53;;;39.10;;
53879;SDS011;39791;53.184;5.486;2023-12-28T07:33:09;87.10;;;44.53;;
53879;SDS011;39791;53.184;5.486;2023-12-28T07:35:35;88.32;;;38.72;;
53879;SDS011;39791;53.184;5.486;2023-12-28T07:38:00;90.30;;;41.13;;
53879;SDS011;39791;53.184;5.486;2023-12-28T07:40:26;89.25;;;43.72;;
53879;SDS011;39791;53.184;5.486;2023-12-28T07:42:52;82.00;;;40.88;;
53879;SDS011;39791;53.184;5.486;2023-12-28T07:45:27;75.82;;;42.10;;
53879;SDS011;39791;53.184;5.486;2023-12-28T07:47:52;83.10;;;41.50;;
53879;SDS011;39791;53.184;5.486;2023-12-28T07:50:18;91.07;;;40.17;;
53879;SDS011;39791;53.184;5.486;2023-12-28T07:52:44;77.00;;;37.55;;
53879;SDS011;39791;53.184;5.486;2023-12-28T07:55:11;86.43;;;38.50;;
53879;SDS011;39791;53.184;5.486;2023-12-28T07:57:37;84.57;;;41.30;;
53879;SDS011;39791;53.184;5.486;2023-12-28T08:00:03;73.13;;;37.53;;
53879;SDS011;39791;53.184;5.486;2023-12-28T08:02:30;71.55;;;37.92;;
53879;SDS011;39791;53.184;5.486;2023-12-28T08:04:56;85.70;;;40.58;;
53879;SDS011;39791;53.184;5.486;2023-12-28T08:07:21;88.68;;;41.28;;
53879;SDS011;39791;53.184;5.486;2023-12-28T08:09:47;84.85;;;42.28;;
53879;SDS011;39791;53.184;5.486;2023-12-28T08:15:26;78.95;;;39.95;;
53879;SDS011;39791;53.184;5.486;2023-12-28T08:17:52;75.60;;;38.65;;
53879;SDS011;39791;53.184;5.486;2023-12-28T08:20:17;82.28;;;40.05;;
53879;SDS011;39791;53.184;5.486;2023-12-28T08:22:43;86.18;;;39.03;;
53879;SDS011;39791;53.184;5.486;2023-12-28T08:25:09;92.18;;;42.65;;
53879;SDS011;39791;53.184;5.486;2023-12-28T08:27:35;79.20;;;47.58;;
53879;SDS011;39791;53.184;5.486;2023-12-28T08:30:01;97.32;;;46.17;;
53879;SDS011;39791;53.184;5.486;2023-12-28T08:32:27;91.80;;;41.10;;
53879;SDS011;39791;53.184;5.486;2023-12-28T08:34:52;80.50;;;39.95;;
53879;SDS011;39791;53.184;5.486;2023-12-28T08:37:18;102.35;;;40.80;;
53879;SDS011;39791;53.184;5.486;2023-12-28T08:39:44;83.82;;;39.25;;
53879;SDS011;39791;53.184;5.486;2023-12-28T08:42:09;82.07;;;38.25;;
53879;SDS011;39791;53.184;5.486;2023-12-28T08:44:35;82.28;;;39.67;;
53879;SDS011;39791;53.184;5.486;2023-12-28T08:47:01;77.40;;;40.45;;
53879;SDS011;39791;53.184;5.486;2023-12-28T08:49:27;97.88;;;41.80;;
53879;SDS011;39791;53.184;5.486;2023-12-28T08:51:54;82.30;;;40.90;;
53879;SDS011;39791;53.184;5.486;2023-12-28T08:54:19;97.75;;;44.30;;
53879;SDS011;39791;53.184;5.486;2023-12-28T08:56:45;92.20;;;39.90;;
53879;SDS011;39791;53.184;5.486;2023-12-28T08:59:11;92.88;;;43.15;;
53879;SDS011;39791;53.184;5.486;2023-12-28T09:01:37;93.22;;;42.72;;
53879;SDS011;39791;53.184;5.486;2023-12-28T09:04:02;82.10;;;39.78;;
53879;SDS011;39791;53.184;5.486;2023-12-28T09:06:28;84.88;;;40.03;;
53879;SDS011;39791;53.184;5.486;2023-12-28T09:08:53;82.25;;;41.42;;
53879;SDS011;39791;53.184;5.486;2023-12-28T09:11:19;95.82;;;43.45;;
53879;SDS011;39791;53.184;5.486;2023-12-28T09:13:46;89.63;;;41.67;;
53879;SDS011;39791;53.184;5.486;2023-12-28T09:16:13;84.35;;;36.45;;
53879;SDS011;39791;53.184;5.486;2023-12-28T09:18:40;82.53;;;39.92;;
53879;SDS011;39791;53.184;5.486;2023-12-28T09:21:07;89.70;;;41.05;;
53879;SDS011;39791;53.184;5.486;2023-12-28T09:23:33;73.68;;;40.10;;
53879;SDS011;39791;53.184;5.486;2023-12-28T09:26:00;85.95;;;41.83;;
53879;SDS011;39791;53.184;5.486;2023-12-28T09:28:28;77.82;;;40.88;;
53879;SDS011;39791;53.184;5.486;2023-12-28T09:30:54;93.03;;;42.38;;
53879;SDS011;39791;53.184;5.486;2023-12-28T09:33:19;92.65;;;42.70;;
53879;SDS011;39791;53.184;5.486;2023-12-28T09:35:54;84.65;;;39.45;;
53879;SDS011;39791;53.184;5.486;2023-12-28T09:38:20;81.20;;;41.60;;
53879;SDS011;39791;53.184;5.486;2023-12-28T09:40:46;86.25;;;41.08;;
53879;SDS011;39791;53.184;5.486;2023-12-28T09:45:50;82.50;;;41.53;;
53879;SDS011;39791;53.184;5.486;2023-12-28T09:48:16;77.38;;;40.35;;
53879;SDS011;39791;53.184;5.486;2023-12-28T09:50:53;101.80;;;46.08;;
53879;SDS011;39791;53.184;5.486;2023-12-28T09:53:20;84.22;;;41.00;;
53879;SDS011;39791;53.184;5.486;2023-12-28T09:55:48;84.85;;;42.53;;
53879;SDS011;39791;53.184;5.486;2023-12-28T09:58:14;96.78;;;41.55;;
53879;SDS011;39791;53.184;5.486;2023-12-28T10:00:44;72.32;;;38.00;;
53879;SDS011;39791;53.184;5.486;2023-12-28T10:03:11;82.78;;;41.65;;
53879;SDS011;39791;53.184;5.486;2023-12-28T10:05:38;87.13;;;40.22;;
53879;SDS011;39791;53.184;5.486;2023-12-28T10:08:05;80.43;;;40.97;;
53879;SDS011;39791;53.184;5.486;2023-12-28T10:10:31;89.82;;;45.83;;
53879;SDS011;39791;53.184;5.486;2023-12-28T10:12:57;74.40;;;37.70;;
53879;SDS011;39791;53.184;5.486;2023-12-28T10:15:22;68.47;;;37.17;;
53879;SDS011;39791;53.184;5.486;2023-12-28T10:17:51;78.75;;;39.78;;
53879;SDS011;39791;53.184;5.486;2023-12-28T10:20:17;70.05;;;40.05;;
53879;SDS011;39791;53.184;5.486;2023-12-28T10:22:42;77.03;;;44.30;;
53879;SDS011;39791;53.184;5.486;2023-12-28T10:25:09;86.07;;;43.10;;
53879;SDS011;39791;53.184;5.486;2023-12-28T10:27:40;77.30;;;42.40;;
53879;SDS011;39791;53.184;5.486;2023-12-28T10:30:07;82.28;;;41.40;;
53879;SDS011;39791;53.184;5.486;2023-12-28T10:32:35;83.00;;;44.92;;
53879;SDS011;39791;53.184;5.486;2023-12-28T10:35:00;74.68;;;41.10;;
53879;SDS011;39791;53.184;5.486;2023-12-28T10:37:26;74.13;;;38.40;;
53879;SDS011;39791;53.184;5.486;2023-12-28T10:39:53;89.28;;;45.03;;
53879;SDS011;39791;53.184;5.486;2023-12-28T10:42:31;71.68;;;38.50;;
53879;SDS011;39791;53.184;5.486;2023-12-28T10:45:06;80.07;;;41.25;;
53879;SDS011;39791;53.184;5.486;2023-12-28T10:47:42;87.22;;;39.95;;
53879;SDS011;39791;53.184;5.486;2023-12-28T10:50:08;74.93;;;41.63;;
53879;SDS011;39791;53.184;5.486;2023-12-28T10:52:36;79.13;;;42.63;;
53879;SDS011;39791;53.184;5.486;2023-12-28T10:55:18;77.82;;;42.58;;
53879;SDS011;39791;53.184;5.486;2023-12-28T10:58:05;79.45;;;41.20;;
53879;SDS011;39791;53.184;5.486;2023-12-28T11:00:47;81.55;;;42.45;;
53879;SDS011;39791;53.184;5.486;2023-12-28T11:03:18;68.70;;;40.33;;
53879;SDS011;39791;53.184;5.486;2023-12-28T11:05:51;86.32;;;42.47;;
53879;SDS011;39791;53.184;5.486;2023-12-28T11:08:49;67.53;;;39.35;;
53879;SDS011;39791;53.184;5.486;2023-12-28T11:11:18;70.55;;;36.92;;
53879;SDS011;39791;53.184;5.486;2023-12-28T11:13:46;74.10;;;42.67;;
53879;SDS011;39791;53.184;5.486;2023-12-28T11:16:13;88.40;;;37.78;;
53879;SDS011;39791;53.184;5.486;2023-12-28T11:18:40;77.80;;;39.92;;
53879;SDS011;39791;53.184;5.486;2023-12-28T11:21:06;71.93;;;41.50;;
53879;SDS011;39791;53.184;5.486;2023-12-28T11:23:32;76.40;;;41.13;;
53879;SDS011;39791;53.184;5.486;2023-12-28T11:25:58;92.15;;;47.92;;
53879;SDS011;39791;53.184;5.486;2023-12-28T11:28:23;80.35;;;40.15;;
53879;SDS011;39791;53.184;5.486;2023-12-28T11:30:50;85.53;;;41.85;;
53879;SDS011;39791;53.184;5.486;2023-12-28T11:33:16;72.53;;;36.05;;
53879;SDS011;39791;53.184;5.486;2023-12-28T11:35:42;66.10;;;36.78;;
53879;SDS011;39791;53.184;5.486;2023-12-28T11:38:08;73.72;;;39.38;;
53879;SDS011;39791;53.184;5.486;2023-12-28T11:40:42;83.38;;;39.28;;
53879;SDS011;39791;53.184;5.486;2023-12-28T11:43:18;71.18;;;39.97;;
53879;SDS011;39791;53.184;5.486;2023-12-28T11:45:50;82.65;;;38.08;;
53879;SDS011;39791;53.184;5.486;2023-12-28T11:48:23;79.45;;;40.58;;
53879;SDS011;39791;53.184;5.486;2023-12-28T11:50:53;78.00;;;39.20;;
53879;SDS011;39791;53.184;5.486;2023-12-28T11:53:21;87.53;;;40.55;;
53879;SDS011;39791;53.184;5.486;2023-12-28T11:55:47;69.38;;;37.10;;
53879;SDS011;39791;53.184;5.486;2023-12-28T11:58:12;78.60;;;36.65;;
53879;SDS011;39791;53.184;5.486;2023-12-28T12:00:39;76.03;;;37.33;;
53879;SDS011;39791;53.184;5.486;2023-12-28T12:03:05;71.55;;;38.33;;
53879;SDS011;39791;53.184;5.486;2023-12-28T12:05:31;76.15;;;40.75;;
53879;SDS011;39791;53.184;5.486;2023-12-28T12:07:57;86.65;;;39.53;;
53879;SDS011;39791;53.184;5.486;2023-12-28T12:10:22;83.50;;;41.72;;
53879;SDS011;39791;53.184;5.486;2023-12-28T12:12:48;78.80;;;39.53;;
53879;SDS011;39791;53.184;5.486;2023-12-28T12:15:17;89.70;;;37.55;;
53879;SDS011;39791;53.184;5.486;2023-12-28T12:17:43;78.97;;;38.42;;
53879;SDS011;39791;53.184;5.486;2023-12-28T12:20:09;85.13;;;41.22;;
53879;SDS011;39791;53.184;5.486;2023-12-28T12:22:35;81.03;;;39.35;;
53879;SDS011;39791;53.184;5.486;2023-12-28T12:25:02;80.78;;;39.88;;
53879;SDS011;39791;53.184;5.486;2023-12-28T12:27:30;78.63;;;37.97;;
53879;SDS011;39791;53.184;5.486;2023-12-28T12:29:55;68.75;;;36.40;;
53879;SDS011;39791;53.184;5.486;2023-12-28T12:32:21;71.90;;;38.45;;
53879;SDS011;39791;53.184;5.486;2023-12-28T12:34:47;74.63;;;39.33;;
53879;SDS011;39791;53.184;5.486;2023-12-28T12:37:14;72.97;;;37.65;;
53879;SDS011;39791;53.184;5.486;2023-12-28T12:39:40;73.68;;;36.60;;
53879;SDS011;39791;53.184;5.486;2023-12-28T12:42:05;75.65;;;36.17;;
53879;SDS011;39791;53.184;5.486;2023-12-28T12:44:31;76.25;;;38.60;;
53879;SDS011;39791;53.184;5.486;2023-12-28T12:46:58;82.32;;;41.13;;
53879;SDS011;39791;53.184;5.486;2023-12-28T12:49:24;79.00;;;46.15;;
53879;SDS011;39791;53.184;5.486;2023-12-28T12:51:50;68.72;;;35.92;;
53879;SDS011;39791;53.184;5.486;2023-12-28T12:54:16;67.95;;;37.83;;
53879;SDS011;39791;53.184;5.486;2023-12-28T12:56:45;82.00;;;39.47;;
53879;SDS011;39791;53.184;5.486;2023-12-28T12:59:11;75.15;;;38.67;;
53879;SDS011;39791;53.184;5.486;2023-12-28T13:01:42;84.70;;;41.83;;
53879;SDS011;39791;53.184;5.486;2023-12-28T13:04:08;72.82;;;38.60;;
53879;SDS011;39791;53.184;5.486;2023-12-28T13:06:34;76.90;;;40.92;;
53879;SDS011;39791;53.184;5.486;2023-12-28T13:09:00;76.13;;;38.13;;
53879;SDS011;39791;53.184;5.486;2023-12-28T13:11:25;86.05;;;39.75;;
53879;SDS011;39791;53.184;5.486;2023-12-28T13:13:54;80.10;;;37.60;;
53879;SDS011;39791;53.184;5.486;2023-12-28T13:16:20;80.20;;;38.80;;
53879;SDS011;39791;53.184;5.486;2023-12-28T13:18:46;76.95;;;38.05;;
53879;SDS011;39791;53.184;5.486;2023-12-28T13:21:11;72.68;;;36.80;;
53879;SDS011;39791;53.184;5.486;2023-12-28T13:23:38;80.28;;;40.10;;
53879;SDS011;39791;53.184;5.486;2023-12-28T13:26:03;77.95;;;41.15;;
53879;SDS011;39791;53.184;5.486;2023-12-28T13:28:29;74.47;;;36.90;;
53879;SDS011;39791;53.184;5.486;2023-12-28T13:30:54;74.43;;;38.05;;
53879;SDS011;39791;53.184;5.486;2023-12-28T13:33:20;70.13;;;36.80;;
53879;SDS011;39791;53.184;5.486;2023-12-28T13:35:46;79.15;;;38.85;;
53879;SDS011;39791;53.184;5.486;2023-12-28T13:38:12;60.70;;;36.20;;
53879;SDS011;39791;53.184;5.486;2023-12-28T13:40:38;79.85;;;38.53;;
53879;SDS011;39791;53.184;5.486;2023-12-28T13:43:03;71.95;;;35.17;;
53879;SDS011;39791;53.184;5.486;2023-12-28T13:45:29;67.55;;;35.55;;
53879;SDS011;39791;53.184;5.486;2023-12-28T13:47:54;69.50;;;36.58;;
53879;SDS011;39791;53.184;5.486;2023-12-28T13:50:20;66.10;;;38.75;;
53879;SDS011;39791;53.184;5.486;2023-12-28T13:52:46;74.95;;;38.17;;
53879;SDS011;39791;53.184;5.486;2023-12-28T13:55:11;63.70;;;33.78;;
53879;SDS011;39791;53.184;5.486;2023-12-28T13:57:37;57.35;;;36.28;;
53879;SDS011;39791;53.184;5.486;2023-12-28T14:00:03;69.72;;;38.40;;
53879;SDS011;39791;53.184;5.486;2023-12-28T14:02:30;53.55;;;36.45;;
53879;SDS011;39791;53.184;5.486;2023-12-28T14:04:56;67.57;;;39.50;;
53879;SDS011;39791;53.184;5.486;2023-12-28T14:07:22;59.17;;;35.50;;
53879;SDS011;39791;53.184;5.486;2023-12-28T14:09:48;53.85;;;33.78;;
53879;SDS011;39791;53.184;5.486;2023-12-28T14:12:14;67.35;;;38.42;;
53879;SDS011;39791;53.184;5.486;2023-12-28T14:14:40;63.13;;;34.90;;
53879;SDS011;39791;53.184;5.486;2023-12-28T14:17:05;51.65;;;32.60;;
53879;SDS011;39791;53.184;5.486;2023-12-28T14:19:31;50.58;;;31.13;;
53879;SDS011;39791;53.184;5.486;2023-12-28T14:21:57;57.55;;;35.35;;
53879;SDS011;39791;53.184;5.486;2023-12-28T14:24:23;55.90;;;35.03;;